createdAt,value
2022-08-16T00:02:33.900Z,99127.03
2022-08-16T00:07:35.808Z,99126.09
2022-08-16T00:12:37.794Z,99129.59
2022-08-16T00:17:56.246Z,99121.66
2022-08-16T00:22:59.707Z,99124.81
2022-08-16T00:28:02.220Z,99124.53
2022-08-16T00:33:04.059Z,99128.78
2022-08-16T00:38:40.128Z,99138.81
2022-08-16T00:43:43.298Z,99130.22
2022-08-16T00:48:46.591Z,99124.56
2022-08-16T00:53:49.917Z,99129.38
2022-08-16T00:58:53.640Z,99124.78
2022-08-16T01:03:56.097Z,99146.22
2022-08-16T01:09:00.131Z,99145.72
2022-08-16T01:14:20.122Z,99139.56
2022-08-16T01:19:29.298Z,99157.56
2022-08-16T01:24:52.337Z,99154.59
2022-08-16T01:30:19.617Z,99139.63
2022-08-16T01:35:47.632Z,99159.25
2022-08-16T01:41:02.039Z,99157.94
2022-08-16T01:46:37.314Z,99166.13
2022-08-16T01:51:34.113Z,99153.03
2022-08-16T01:56:42.655Z,99149.88
2022-08-16T02:01:49.619Z,99154.00
2022-08-16T02:06:52.685Z,99151.81
2022-08-16T02:11:57.767Z,99149.03
2022-08-16T02:17:03.298Z,99149.50
2022-08-16T02:22:33.632Z,99143.38
2022-08-16T02:27:32.640Z,99148.53
2022-08-16T02:33:00.985Z,99140.78
2022-08-16T02:38:01.675Z,99140.97
2022-08-16T02:43:11.145Z,99138.56
2022-08-16T02:48:29.246Z,99143.56
2022-08-16T02:53:35.939Z,99140.16
2022-08-16T02:58:38.990Z,99154.00
2022-08-16T03:04:40.912Z,99155.41
2022-08-16T03:09:04.115Z,99148.91
2022-08-16T03:14:09.205Z,99169.09
2022-08-16T03:19:14.141Z,99170.22
2022-08-16T03:24:29.398Z,99175.88
2022-08-16T03:29:33.743Z,99181.09
2022-08-16T03:34:37.995Z,99177.78
2022-08-16T03:39:42.946Z,99187.00
2022-08-16T03:44:49.404Z,99180.56
2022-08-16T03:49:55.182Z,99185.75
2022-08-16T03:54:58.049Z,99187.69
2022-08-16T04:00:01.478Z,99195.59
2022-08-16T04:05:17.842Z,99194.50
2022-08-16T04:10:36.912Z,99194.88
2022-08-16T04:15:40.935Z,99209.94
2022-08-16T04:20:52.953Z,99210.78
2022-08-16T04:26:02.035Z,99220.34
2022-08-16T04:31:10.605Z,99221.25
2022-08-16T04:36:20.022Z,99226.97
2022-08-16T04:41:32.784Z,99231.69
2022-08-16T04:47:02.513Z,99233.63
2022-08-16T04:52:04.492Z,99240.13
2022-08-16T04:57:26.213Z,99253.50
2022-08-16T05:02:42.427Z,99262.31
2022-08-16T05:07:59.519Z,99266.53
2022-08-16T05:13:05.657Z,99261.28
2022-08-16T05:18:09.570Z,99260.94
2022-08-16T05:23:26.646Z,99264.31
2022-08-16T05:28:37.695Z,99263.19
2022-08-16T05:33:43.882Z,99267.41
2022-08-16T05:38:55.719Z,99281.81
2022-08-16T05:44:05.390Z,99280.09
2022-08-16T05:49:39.861Z,99275.75
2022-08-16T05:54:47.762Z,99274.84
2022-08-16T06:00:00.009Z,99277.88
2022-08-16T06:05:14.652Z,99275.28
2022-08-16T06:10:33.007Z,99282.63
2022-08-16T06:15:37.162Z,99283.56
2022-08-16T06:20:55.282Z,99282.13
2022-08-16T06:25:58.614Z,99286.59
2022-08-16T06:31:05.667Z,99295.88
2022-08-16T06:36:09.247Z,99289.66
2022-08-16T06:41:14.195Z,99280.03
2022-08-16T06:46:32.035Z,99286.75
2022-08-16T06:51:47.913Z,99296.09
2022-08-16T06:56:55.294Z,99308.69
2022-08-16T07:01:58.817Z,99320.47
2022-08-16T07:07:06.168Z,99325.53
2022-08-16T07:12:12.262Z,99325.59
2022-08-16T07:17:21.536Z,99317.41
2022-08-16T07:22:37.314Z,99322.84
2022-08-16T07:27:48.124Z,99322.72
2022-08-16T07:32:53.390Z,99339.19
2022-08-16T07:37:55.856Z,99341.28
2022-08-16T07:43:16.179Z,99343.38
2022-08-16T07:48:18.932Z,99338.88
2022-08-16T07:53:30.262Z,99342.59
2022-08-16T07:58:36.206Z,99340.72
2022-08-16T08:03:49.156Z,99338.31
2022-08-16T08:08:57.273Z,99345.59
2022-08-16T08:14:03.679Z,99347.50
2022-08-16T08:19:12.260Z,99341.34
2022-08-16T08:24:16.889Z,99352.75
2022-08-16T08:29:23.043Z,99352.69
2022-08-16T08:34:39.601Z,99359.25
2022-08-16T08:39:54.782Z,99360.84
2022-08-16T08:44:57.782Z,99359.72
2022-08-16T08:49:59.719Z,99354.19
2022-08-16T08:55:11.133Z,99362.13
2022-08-16T09:00:17.784Z,99360.09
2022-08-16T09:05:36.075Z,99361.13
2022-08-16T09:10:42.318Z,99366.16
2022-08-16T09:15:44.423Z,99365.53
2022-08-16T09:20:59.719Z,99362.16
2022-08-16T09:26:03.090Z,99361.13
2022-08-16T09:31:24.762Z,99356.13
2022-08-16T09:36:31.821Z,99359.31
2022-08-16T09:41:34.676Z,99342.59
2022-08-16T09:46:49.237Z,99339.50
2022-08-16T09:51:53.337Z,99347.66
2022-08-16T09:56:55.342Z,99338.22
2022-08-16T10:01:58.394Z,99339.81
2022-08-16T10:12:25.992Z,99337.50
2022-08-16T10:17:30.001Z,99334.59
2022-08-16T10:22:31.736Z,99335.13
2022-08-16T10:27:56.885Z,99329.66
2022-08-16T10:32:59.649Z,99322.91
2022-08-16T10:38:01.301Z,99323.50
2022-08-16T10:43:03.343Z,99320.53
2022-08-16T10:48:28.017Z,99319.91
2022-08-16T10:53:33.996Z,99320.31
2022-08-16T10:58:36.497Z,99326.19
2022-08-16T11:03:42.383Z,99326.59
2022-08-16T11:08:46.480Z,99319.09
2022-08-16T11:13:58.714Z,99310.41
2022-08-16T11:19:06.484Z,99307.13
2022-08-16T11:24:41.919Z,99314.88
2022-08-16T11:29:37.525Z,99307.44
2022-08-16T11:35:03.895Z,99305.25
2022-08-16T11:40:01.897Z,99310.28
2022-08-16T11:45:04.057Z,99307.94
2022-08-16T11:50:09.130Z,99309.13
2022-08-16T11:55:12.969Z,99314.19
2022-08-16T12:00:34.061Z,99304.84
2022-08-16T12:05:39.579Z,99308.50
2022-08-16T12:10:43.323Z,99299.28
2022-08-16T12:15:47.549Z,99299.06
2022-08-16T12:20:49.519Z,99295.25
2022-08-16T12:25:51.467Z,99296.41
2022-08-16T12:30:54.077Z,99302.31
2022-08-16T12:35:55.781Z,99294.72
2022-08-16T12:40:58.265Z,99300.25
2022-08-16T12:46:00.196Z,99294.78
2022-08-16T12:51:13.791Z,99291.22
2022-08-16T12:56:26.056Z,99287.38
2022-08-16T13:01:31.219Z,99297.47
2022-08-16T13:06:34.032Z,99283.47
2022-08-16T13:11:54.995Z,99282.66
2022-08-16T13:17:06.793Z,99282.19
2022-08-16T13:22:11.972Z,99276.38
2022-08-16T13:27:20.834Z,99275.84
2022-08-16T13:32:42.457Z,99278.44
2022-08-16T13:37:44.372Z,99277.44
2022-08-16T13:42:47.609Z,99276.75
2022-08-16T13:47:52.919Z,99275.66
2022-08-16T13:52:56.470Z,99283.56
2022-08-16T13:58:35.548Z,99276.03
2022-08-16T14:03:21.674Z,99263.41
2022-08-16T14:08:27.406Z,99262.00
2022-08-16T14:13:29.415Z,99262.44
2022-08-16T14:18:31.247Z,99267.53
2022-08-16T14:23:33.113Z,99262.50
2022-08-16T14:28:35.037Z,99256.19
2022-08-16T14:33:37.010Z,99256.34
2022-08-16T14:38:39.503Z,99252.66
2022-08-16T14:43:41.584Z,99254.34
2022-08-16T14:48:43.875Z,99247.22
2022-08-16T14:53:45.697Z,99249.69
2022-08-16T14:58:53.610Z,99253.25
2022-08-16T15:03:55.782Z,99239.28
2022-08-16T15:08:57.736Z,99252.84
2022-08-16T15:13:59.342Z,99251.69
2022-08-16T15:19:01.529Z,99255.13
2022-08-16T15:24:03.993Z,99252.34
2022-08-16T15:29:08.250Z,99266.53
2022-08-16T15:34:13.085Z,99250.75
2022-08-16T15:39:35.627Z,99259.31
2022-08-16T15:44:51.969Z,99260.91
2022-08-16T15:49:56.333Z,99262.81
2022-08-16T15:55:23.800Z,99263.50
2022-08-16T16:00:30.077Z,99262.94
2022-08-16T16:05:35.346Z,99268.09
2022-08-16T16:10:37.773Z,99264.75
2022-08-16T16:15:47.198Z,99270.94
2022-08-16T16:20:52.056Z,99274.34
2022-08-16T16:25:54.882Z,99268.56
2022-08-16T16:30:58.433Z,99271.38
2022-08-16T16:36:03.329Z,99270.22
2022-08-16T16:41:11.553Z,99270.28
2022-08-16T16:46:40.673Z,99268.34
2022-08-16T16:51:44.713Z,99272.63
2022-08-16T16:56:49.968Z,99278.22
2022-08-16T17:01:59.710Z,99277.72
2022-08-16T17:07:13.513Z,99290.09
2022-08-16T17:12:24.946Z,99290.66
2022-08-16T17:17:29.567Z,99285.13
2022-08-16T17:22:32.890Z,99286.88
2022-08-16T17:27:35.529Z,99280.59
2022-08-16T17:32:47.951Z,99288.22
2022-08-16T17:37:51.781Z,99284.50
2022-08-16T17:42:55.159Z,99293.78
2022-08-16T17:47:56.848Z,99297.38
2022-08-16T17:52:58.794Z,99309.00
2022-08-16T17:58:00.540Z,99311.22
2022-08-16T18:03:02.880Z,99314.13
2022-08-16T18:08:04.915Z,99324.56
2022-08-16T18:13:11.910Z,99327.91
2022-08-16T18:18:14.838Z,99333.94
2022-08-16T18:23:23.498Z,99339.31
2022-08-16T18:28:27.532Z,99336.25
2022-08-16T18:33:31.454Z,99340.69
2022-08-16T18:38:34.833Z,99349.03
2022-08-16T18:43:54.200Z,99353.03
2022-08-16T18:49:01.369Z,99358.91
2022-08-16T18:54:03.422Z,99359.09
2022-08-16T18:59:05.968Z,99360.63
2022-08-16T19:04:54.978Z,99368.78
2022-08-16T19:09:29.509Z,99375.19
2022-08-16T19:14:31.219Z,99377.22
2022-08-16T19:19:32.872Z,99383.53
2022-08-16T19:24:34.596Z,99394.44
2022-08-16T19:29:38.688Z,99401.38
2022-08-16T19:34:40.336Z,99399.06
2022-08-16T19:39:42.422Z,99399.91
2022-08-16T19:44:45.621Z,99408.91
2022-08-16T19:49:47.368Z,99410.75
2022-08-16T19:54:52.117Z,99417.41
2022-08-16T19:59:53.719Z,99422.25
2022-08-16T20:05:03.120Z,99427.63
2022-08-16T20:10:07.538Z,99430.00
2022-08-16T20:15:16.185Z,99434.25
2022-08-16T20:20:23.255Z,99445.75
2022-08-16T20:25:30.809Z,99446.91
2022-08-16T20:30:48.828Z,99436.22
2022-08-16T20:35:50.448Z,99444.06
2022-08-16T20:40:52.246Z,99437.53
2022-08-16T20:45:54.166Z,99441.00
2022-08-16T20:50:55.852Z,99451.41
2022-08-16T20:56:00.900Z,99444.16
2022-08-16T21:01:02.611Z,99451.28
2022-08-16T21:06:05.456Z,99441.69
2022-08-16T21:11:07.306Z,99446.75
2022-08-16T21:16:09.062Z,99444.50
2022-08-16T21:21:12.100Z,99445.28
2022-08-16T21:26:13.672Z,99448.66
2022-08-16T21:31:17.326Z,99446.75
2022-08-16T21:36:34.831Z,99441.44
2022-08-16T21:41:38.494Z,99443.66
2022-08-16T21:46:40.141Z,99444.03
2022-08-16T21:51:41.781Z,99448.06
2022-08-16T21:56:43.451Z,99448.25
2022-08-16T22:01:45.271Z,99447.03
2022-08-16T22:06:47.323Z,99448.66
2022-08-16T22:11:49.219Z,99445.81
2022-08-16T22:16:50.841Z,99454.81
2022-08-16T22:21:52.957Z,99457.22
2022-08-16T22:26:54.649Z,99465.19
2022-08-16T22:31:56.276Z,99466.25
2022-08-16T22:36:58.175Z,99463.31
2022-08-16T22:42:07.159Z,99465.81
2022-08-16T22:47:08.947Z,99470.16
2022-08-16T22:52:10.620Z,99477.91
2022-08-16T22:57:12.753Z,99474.56
2022-08-16T23:02:14.978Z,99462.84
2022-08-16T23:07:17.023Z,99465.38
2022-08-16T23:12:18.652Z,99458.16
2022-08-16T23:17:30.890Z,99469.72
2022-08-16T23:23:20.568Z,99464.09
2022-08-16T23:28:11.256Z,99456.91
2022-08-16T23:33:15.250Z,99457.44
2022-08-16T23:38:38.782Z,99459.13
2022-08-16T23:43:43.265Z,99455.59
2022-08-16T23:49:57.594Z,99452.63
2022-08-16T23:54:09.729Z,99453.06
2022-08-16T23:59:11.333Z,99446.69
